Time;durP1;ratioP1;P1;durP2;ratioP2;P2;SDS_P1;SDS_P2;PMS_P1;PMS_P2;Temp;Humidity;BMP_temperature;BMP_pressure;BME280_temperature;BME280_humidity;BME280_pressure;Samples;Min_cycle;Max_cycle;Signal;HPM_P1;HPM_P2
2022/05/28 00:02:02;;;;;;;;;;;23.10;99.90;;;;;;5054007;28;19955;-71
2022/05/28 00:04:28;;;;;;;;;;;23.00;99.90;;;;;;5046545;28;20390;-70
2022/05/28 00:06:53;;;;;;;;;;;23.00;99.90;;;;;;5035937;28;19910;-69
2022/05/28 00:09:19;;;;;;;;;;;23.00;99.90;;;;;;5037123;28;20008;-70
2022/05/28 00:11:44;;;;;;;;;;;22.90;99.90;;;;;;5050442;28;19912;-69
2022/05/28 00:14:10;;;;;;;;;;;23.00;99.90;;;;;;5052621;28;20351;-69
2022/05/28 00:16:36;;;;;;;;;;;22.90;99.90;;;;;;5049335;28;19918;-70
2022/05/28 00:19:03;;;;;;;;;;;23.10;99.90;;;;;;5066943;28;20414;-70
2022/05/28 00:21:29;;;;;;;;;;;23.00;99.90;;;;;;5054799;28;19916;-68
2022/05/28 00:23:54;;;;;;;;;;;23.10;99.90;;;;;;5064310;28;19920;-70
2022/05/28 00:26:20;;;;;;;;;;;22.90;99.90;;;;;;5048223;28;20024;-69
2022/05/28 00:28:46;;;;;;;;;;;22.90;99.90;;;;;;5063429;28;19913;-70
2022/05/28 00:31:12;;;;;;;;;;;22.90;99.90;;;;;;5050850;28;19964;-69
2022/05/28 00:33:37;;;;;;;;;;;22.90;99.90;;;;;;5053014;28;20003;-67
2022/05/28 00:36:04;;;;;;;;;;;23.00;99.90;;;;;;5049513;28;20040;-68
2022/05/28 00:38:30;;;;;;;;;;;23.00;99.90;;;;;;5059209;28;19920;-69
2022/05/28 00:40:57;;;;;;;;;;;23.10;99.90;;;;;;5048918;28;19913;-66
2022/05/28 00:43:22;;;;;;;;;;;23.00;99.90;;;;;;5050912;28;20045;-69
2022/05/28 00:45:50;;;;;;;;;;;23.00;99.90;;;;;;5050373;28;20003;-69
2022/05/28 00:48:20;;;;;;;;;;;22.90;99.90;;;;;;5049930;28;19999;-69
2022/05/28 00:50:46;;;;;;;;;;;23.00;99.90;;;;;;5051139;28;19936;-68
2022/05/28 00:53:12;;;;;;;;;;;23.00;99.90;;;;;;5040204;28;19908;-68
2022/05/28 00:55:37;;;;;;;;;;;23.00;99.90;;;;;;5070234;28;19961;-68
2022/05/28 00:58:04;;;;;;;;;;;23.10;99.90;;;;;;5057749;28;20043;-69
2022/05/28 01:00:30;;;;;;;;;;;23.10;99.90;;;;;;5053223;28;19923;-69
2022/05/28 01:03:07;;;;;;;;;;;23.10;99.90;;;;;;5052062;28;20338;-69
2022/05/28 01:05:48;;;;;;;;;;;23.10;99.90;;;;;;5065650;28;19919;-68
2022/05/28 01:08:17;;;;;;;;;;;23.00;99.90;;;;;;5057765;28;20365;-68
2022/05/28 01:11:00;;;;;;;;;;;22.90;99.90;;;;;;5034448;28;19925;-69
2022/05/28 01:13:28;;;;;;;;;;;22.90;99.90;;;;;;5048588;28;20243;-69
2022/05/28 01:15:56;;;;;;;;;;;22.90;99.90;;;;;;5050625;28;20003;-70
2022/05/28 01:18:40;;;;;;;;;;;22.90;99.90;;;;;;5047181;28;19935;-67
2022/05/28 01:21:07;;;;;;;;;;;22.80;99.90;;;;;;5046832;28;19995;-68
2022/05/28 01:23:51;;;;;;;;;;;22.80;99.90;;;;;;5050969;28;19913;-69
2022/05/28 01:26:26;;;;;;;;;;;22.70;99.90;;;;;;5048865;28;19920;-70
2022/05/28 01:28:55;;;;;;;;;;;22.60;99.90;;;;;;5058344;28;19948;-69
2022/05/28 01:31:22;;;;;;;;;;;22.50;99.90;;;;;;5046427;28;20390;-68
2022/05/28 01:33:48;;;;;;;;;;;22.50;99.90;;;;;;5050417;28;19913;-69
2022/05/28 01:36:15;;;;;;;;;;;22.50;99.90;;;;;;5050091;28;20375;-69
2022/05/28 01:38:41;;;;;;;;;;;22.50;99.90;;;;;;5045684;28;20379;-69
2022/05/28 01:41:08;;;;;;;;;;;22.60;99.90;;;;;;5046197;28;19919;-67
2022/05/28 01:43:38;;;;;;;;;;;22.70;99.90;;;;;;5049234;28;20358;-69
2022/05/28 01:46:08;;;;;;;;;;;22.80;99.90;;;;;;5050253;28;20400;-68
2022/05/28 01:48:35;;;;;;;;;;;22.80;99.90;;;;;;5051785;28;19967;-69
2022/05/28 01:51:02;;;;;;;;;;;22.80;99.90;;;;;;5055074;28;19916;-67
2022/05/28 01:56:13;;;;;;;;;;;22.70;99.90;;;;;;5059027;28;19919;-67
2022/05/28 01:58:39;;;;;;;;;;;22.70;99.90;;;;;;5048440;28;19921;-68
2022/05/28 02:01:05;;;;;;;;;;;22.70;99.90;;;;;;5049694;28;20333;-68
2022/05/28 02:03:32;;;;;;;;;;;22.80;99.90;;;;;;5052432;28;19909;-68
2022/05/28 02:05:58;;;;;;;;;;;22.70;99.90;;;;;;5051034;28;20274;-68
2022/05/28 02:08:24;;;;;;;;;;;22.80;99.90;;;;;;5050164;28;20009;-68
2022/05/28 02:10:55;;;;;;;;;;;22.70;99.90;;;;;;5046386;28;20020;-68
2022/05/28 02:13:20;;;;;;;;;;;22.60;99.90;;;;;;5043924;28;19916;-69
2022/05/28 02:15:52;;;;;;;;;;;22.70;99.90;;;;;;5050542;28;19919;-70
2022/05/28 02:18:26;;;;;;;;;;;22.70;99.90;;;;;;5041441;28;19944;-69
2022/05/28 02:20:56;;;;;;;;;;;22.70;99.90;;;;;;5049193;28;20227;-69
2022/05/28 02:23:22;;;;;;;;;;;22.60;99.90;;;;;;5041679;28;20012;-69
2022/05/28 02:25:57;;;;;;;;;;;22.70;99.90;;;;;;5048565;28;19942;-70
2022/05/28 02:28:23;;;;;;;;;;;22.70;99.90;;;;;;5062766;28;19912;-70
2022/05/28 02:30:50;;;;;;;;;;;22.80;99.90;;;;;;5048824;28;19914;-70
2022/05/28 02:33:16;;;;;;;;;;;22.70;99.90;;;;;;5047261;28;19912;-70
2022/05/28 02:35:42;;;;;;;;;;;22.70;99.90;;;;;;5044331;28;19909;-68
2022/05/28 02:38:07;;;;;;;;;;;22.70;99.90;;;;;;5046292;28;20310;-69
2022/05/28 02:40:33;;;;;;;;;;;22.70;99.90;;;;;;5048445;28;19912;-69
2022/05/28 02:42:58;;;;;;;;;;;22.80;99.90;;;;;;5043857;28;20355;-68
2022/05/28 02:45:24;;;;;;;;;;;22.80;99.90;;;;;;5046055;28;19928;-68
2022/05/28 02:47:49;;;;;;;;;;;22.80;99.90;;;;;;5052931;28;19916;-69
2022/05/28 02:50:15;;;;;;;;;;;22.80;99.90;;;;;;5053967;28;19924;-68
2022/05/28 02:52:42;;;;;;;;;;;22.80;99.90;;;;;;5047177;28;20409;-68
2022/05/28 02:55:08;;;;;;;;;;;22.80;99.90;;;;;;5050318;28;19920;-69
2022/05/28 02:57:34;;;;;;;;;;;22.90;99.90;;;;;;5057153;28;19909;-69
2022/05/28 02:59:59;;;;;;;;;;;22.90;99.90;;;;;;5049811;28;19924;-68
2022/05/28 03:02:28;;;;;;;;;;;23.10;99.90;;;;;;5046608;28;19991;-68
2022/05/28 03:04:53;;;;;;;;;;;23.00;99.90;;;;;;5045845;28;19956;-68
2022/05/28 03:07:19;;;;;;;;;;;23.10;99.90;;;;;;5048441;28;19917;-70
2022/05/28 03:09:45;;;;;;;;;;;23.10;99.90;;;;;;5049778;28;19917;-69
2022/05/28 03:12:10;;;;;;;;;;;23.10;99.90;;;;;;5049103;28;19920;-69
2022/05/28 03:14:36;;;;;;;;;;;23.10;99.90;;;;;;5056862;28;19917;-69
2022/05/28 03:17:02;;;;;;;;;;;23.00;99.90;;;;;;5050721;28;19923;-69
2022/05/28 03:19:27;;;;;;;;;;;23.00;99.90;;;;;;5047744;28;19920;-69
2022/05/28 03:21:53;;;;;;;;;;;23.00;99.90;;;;;;5053146;28;19913;-68
2022/05/28 03:24:19;;;;;;;;;;;23.00;99.90;;;;;;5054088;28;20362;-70
2022/05/28 03:26:44;;;;;;;;;;;22.90;99.90;;;;;;5061663;28;19920;-68
2022/05/28 03:29:10;;;;;;;;;;;22.90;99.90;;;;;;5051204;28;19944;-69
2022/05/28 03:31:35;;;;;;;;;;;22.90;99.90;;;;;;5035808;28;19939;-69
2022/05/28 03:34:01;;;;;;;;;;;22.90;99.90;;;;;;5045713;28;19928;-68
2022/05/28 03:36:27;;;;;;;;;;;22.90;99.90;;;;;;5037870;28;19913;-70
2022/05/28 03:38:52;;;;;;;;;;;22.90;99.90;;;;;;5035178;28;19921;-70
2022/05/28 03:41:18;;;;;;;;;;;23.00;99.90;;;;;;5033062;28;19996;-70
2022/05/28 03:43:44;;;;;;;;;;;23.00;99.90;;;;;;5050478;28;19956;-70
2022/05/28 03:46:25;;;;;;;;;;;23.00;99.90;;;;;;5048780;28;19963;-70
2022/05/28 03:48:51;;;;;;;;;;;23.00;99.90;;;;;;5023825;28;20385;-70
2022/05/28 03:51:17;;;;;;;;;;;22.90;99.90;;;;;;5049429;28;19916;-70
2022/05/28 03:53:43;;;;;;;;;;;23.00;99.90;;;;;;5046680;28;19944;-70
2022/05/28 03:56:08;;;;;;;;;;;23.00;99.90;;;;;;5027589;28;19923;-70
2022/05/28 03:58:34;;;;;;;;;;;23.00;99.90;;;;;;5050959;28;19917;-70
2022/05/28 04:00:59;;;;;;;;;;;22.90;99.90;;;;;;5053388;28;20003;-70
2022/05/28 04:03:25;;;;;;;;;;;22.90;99.90;;;;;;5053452;28;19920;-70
2022/05/28 04:05:50;;;;;;;;;;;22.90;99.90;;;;;;5046551;28;20381;-71
2022/05/28 04:08:17;;;;;;;;;;;22.80;99.90;;;;;;5049925;28;19935;-70
2022/05/28 04:10:42;;;;;;;;;;;22.80;99.90;;;;;;5051712;28;20024;-69
2022/05/28 04:13:08;;;;;;;;;;;22.80;99.90;;;;;;5053758;28;19940;-70
2022/05/28 04:15:33;;;;;;;;;;;22.80;99.90;;;;;;5053664;28;19913;-70
2022/05/28 04:17:59;;;;;;;;;;;22.80;99.90;;;;;;5034724;28;19916;-70
2022/05/28 04:20:24;;;;;;;;;;;22.80;99.90;;;;;;5048126;28;20391;-70
2022/05/28 04:22:50;;;;;;;;;;;22.80;99.90;;;;;;5051479;28;19964;-69
2022/05/28 04:25:16;;;;;;;;;;;22.80;99.90;;;;;;5050355;28;19928;-70
2022/05/28 04:27:42;;;;;;;;;;;22.80;99.90;;;;;;5051587;28;19987;-70
2022/05/28 04:30:08;;;;;;;;;;;22.80;99.90;;;;;;5050983;28;19917;-69
2022/05/28 04:32:33;;;;;;;;;;;22.70;99.90;;;;;;5050916;28;19967;-69
2022/05/28 04:34:59;;;;;;;;;;;22.70;99.90;;;;;;5052436;28;19924;-69
2022/05/28 04:37:24;;;;;;;;;;;22.60;99.90;;;;;;5062162;28;19995;-70
2022/05/28 04:39:50;;;;;;;;;;;22.50;99.90;;;;;;5057133;28;19958;-71
2022/05/28 04:42:15;;;;;;;;;;;22.50;99.90;;;;;;5045175;28;19988;-70
2022/05/28 04:44:41;;;;;;;;;;;22.50;99.90;;;;;;5053765;28;19920;-71
2022/05/28 04:47:07;;;;;;;;;;;22.50;99.90;;;;;;5063350;28;19960;-70
2022/05/28 04:49:33;;;;;;;;;;;22.50;99.90;;;;;;5047372;28;19932;-70
2022/05/28 04:51:58;;;;;;;;;;;22.50;99.90;;;;;;5044244;28;19959;-70
2022/05/28 04:54:24;;;;;;;;;;;22.70;99.90;;;;;;5052485;28;19920;-71
2022/05/28 04:56:49;;;;;;;;;;;22.30;99.90;;;;;;5056480;28;19921;-71
2022/05/28 04:59:15;;;;;;;;;;;22.00;99.90;;;;;;5050182;28;19924;-71
2022/05/28 05:01:41;;;;;;;;;;;21.90;99.90;;;;;;5050455;28;20013;-70
2022/05/28 05:04:06;;;;;;;;;;;21.90;99.90;;;;;;5048124;28;20363;-72
2022/05/28 05:06:32;;;;;;;;;;;21.90;99.90;;;;;;5049975;28;19917;-71
2022/05/28 05:08:58;;;;;;;;;;;22.00;99.90;;;;;;5055414;28;19996;-70
2022/05/28 05:11:23;;;;;;;;;;;21.90;99.90;;;;;;5066202;28;19917;-70
2022/05/28 05:13:49;;;;;;;;;;;21.70;99.90;;;;;;5067971;28;19913;-70
2022/05/28 05:16:15;;;;;;;;;;;21.70;99.90;;;;;;5071999;28;19913;-70
2022/05/28 05:18:41;;;;;;;;;;;21.70;99.90;;;;;;5065337;28;19912;-70
2022/05/28 05:21:07;;;;;;;;;;;21.90;99.90;;;;;;5056818;28;19927;-70
2022/05/28 05:23:32;;;;;;;;;;;22.00;99.90;;;;;;5052216;28;19913;-69
2022/05/28 05:25:58;;;;;;;;;;;22.10;99.90;;;;;;5032611;28;19952;-70
2022/05/28 05:28:23;;;;;;;;;;;22.30;99.90;;;;;;5031641;28;19913;-69
2022/05/28 05:30:49;;;;;;;;;;;22.30;99.90;;;;;;5050619;28;19920;-70
2022/05/28 05:33:14;;;;;;;;;;;22.30;99.90;;;;;;5049330;28;19927;-71
2022/05/28 05:35:40;;;;;;;;;;;22.30;99.90;;;;;;5049965;28;19959;-70
2022/05/28 05:38:07;;;;;;;;;;;22.30;99.90;;;;;;5046676;28;20452;-70
2022/05/28 05:40:34;;;;;;;;;;;22.40;99.90;;;;;;5049711;28;19913;-70
2022/05/28 05:43:00;;;;;;;;;;;22.30;99.90;;;;;;5062378;28;20478;-70
2022/05/28 05:45:25;;;;;;;;;;;22.40;99.90;;;;;;5052762;28;19932;-70
2022/05/28 05:47:51;;;;;;;;;;;22.50;99.90;;;;;;5063673;28;19968;-70
2022/05/28 05:50:16;;;;;;;;;;;22.50;99.90;;;;;;5055643;28;20268;-70
2022/05/28 05:52:42;;;;;;;;;;;22.50;99.90;;;;;;5051382;28;20063;-71
2022/05/28 05:55:08;;;;;;;;;;;22.50;99.90;;;;;;5060711;28;20285;-71
2022/05/28 05:57:33;;;;;;;;;;;22.50;99.90;;;;;;5057188;28;19949;-70
2022/05/28 05:59:59;;;;;;;;;;;22.40;99.90;;;;;;5049448;28;19939;-71
2022/05/28 06:02:24;;;;;;;;;;;22.30;99.90;;;;;;5053945;28;19967;-71
2022/05/28 06:04:50;;;;;;;;;;;22.00;99.90;;;;;;5052527;28;20329;-70
2022/05/28 06:07:15;;;;;;;;;;;22.00;99.90;;;;;;5045502;28;19913;-69
2022/05/28 06:09:41;;;;;;;;;;;21.80;99.90;;;;;;5051741;28;19913;-70
2022/05/28 06:12:07;;;;;;;;;;;21.30;99.90;;;;;;5050277;28;19913;-70
2022/05/28 06:14:32;;;;;;;;;;;20.70;99.90;;;;;;5059550;28;19939;-71
2022/05/28 06:16:58;;;;;;;;;;;20.40;99.90;;;;;;5046861;28;19912;-70
2022/05/28 06:19:24;;;;;;;;;;;20.30;99.90;;;;;;5050264;28;19960;-69
2022/05/28 06:21:49;;;;;;;;;;;20.20;99.90;;;;;;5052045;28;20233;-70
2022/05/28 06:24:15;;;;;;;;;;;20.10;99.90;;;;;;5051013;28;19928;-70
2022/05/28 06:26:40;;;;;;;;;;;20.10;99.90;;;;;;5049828;28;19978;-70
2022/05/28 06:29:06;;;;;;;;;;;20.10;99.90;;;;;;5051795;28;19909;-70
2022/05/28 06:31:31;;;;;;;;;;;20.00;99.90;;;;;;5031554;28;20386;-70
2022/05/28 06:33:57;;;;;;;;;;;20.10;99.90;;;;;;5047624;28;20016;-71
2022/05/28 06:36:23;;;;;;;;;;;20.00;99.90;;;;;;5040576;28;19924;-71
2022/05/28 06:38:48;;;;;;;;;;;20.10;99.90;;;;;;5028974;28;20300;-71
2022/05/28 06:41:14;;;;;;;;;;;20.10;99.90;;;;;;5044355;28;19913;-71
2022/05/28 06:43:39;;;;;;;;;;;20.30;99.90;;;;;;5049760;28;20371;-70
2022/05/28 06:46:08;;;;;;;;;;;20.10;99.90;;;;;;5047902;28;19921;-70
2022/05/28 06:48:35;;;;;;;;;;;20.10;99.90;;;;;;5048848;28;19913;-71
2022/05/28 06:51:04;;;;;;;;;;;20.00;99.90;;;;;;5046924;28;20309;-70
2022/05/28 06:53:40;;;;;;;;;;;20.00;99.90;;;;;;5045995;28;19959;-70
2022/05/28 06:56:06;;;;;;;;;;;20.20;99.90;;;;;;5049563;28;20003;-72
2022/05/28 06:58:32;;;;;;;;;;;20.10;99.90;;;;;;5051045;28;19916;-70
2022/05/28 07:00:59;;;;;;;;;;;20.00;99.90;;;;;;5046274;28;19920;-70
2022/05/28 07:03:26;;;;;;;;;;;19.90;99.90;;;;;;5048390;28;20286;-70
2022/05/28 07:05:52;;;;;;;;;;;19.80;99.90;;;;;;5045702;28;19996;-71
2022/05/28 07:08:18;;;;;;;;;;;19.90;99.90;;;;;;5046642;28;19912;-70
2022/05/28 07:10:45;;;;;;;;;;;19.90;99.90;;;;;;5047163;28;19930;-70
2022/05/28 07:13:11;;;;;;;;;;;19.90;99.90;;;;;;5048397;28;19909;-69
2022/05/28 07:15:37;;;;;;;;;;;19.90;99.90;;;;;;5048150;28;19920;-71
2022/05/28 07:18:02;;;;;;;;;;;19.90;99.90;;;;;;5038907;28;19920;-71
2022/05/28 07:20:28;;;;;;;;;;;19.90;99.90;;;;;;5058797;28;19913;-71
2022/05/28 07:22:54;;;;;;;;;;;19.80;99.90;;;;;;5049227;28;19917;-71
2022/05/28 07:25:19;;;;;;;;;;;19.70;99.90;;;;;;5059125;28;19916;-69
2022/05/28 07:27:45;;;;;;;;;;;19.80;99.90;;;;;;5059048;28;19919;-69
2022/05/28 07:30:11;;;;;;;;;;;19.40;99.90;;;;;;5046510;28;19917;-68
2022/05/28 07:32:36;;;;;;;;;;;19.20;99.90;;;;;;5053073;28;19948;-68
2022/05/28 07:35:02;;;;;;;;;;;19.10;99.90;;;;;;5058306;28;20369;-68
2022/05/28 07:37:29;;;;;;;;;;;19.10;99.90;;;;;;5048175;28;19920;-66
2022/05/28 07:39:55;;;;;;;;;;;19.10;99.90;;;;;;5043062;28;19917;-68
2022/05/28 07:42:20;;;;;;;;;;;19.00;99.90;;;;;;5049643;28;19998;-68
2022/05/28 07:44:46;;;;;;;;;;;18.90;99.90;;;;;;5047101;28;20347;-67
2022/05/28 07:47:11;;;;;;;;;;;18.90;99.90;;;;;;5045716;28;20290;-69
2022/05/28 07:49:38;;;;;;;;;;;18.80;99.90;;;;;;5045716;28;20610;-69
2022/05/28 07:52:04;;;;;;;;;;;18.70;99.90;;;;;;5048459;28;20001;-68
2022/05/28 07:54:29;;;;;;;;;;;18.90;99.90;;;;;;5047478;28;19960;-69
2022/05/28 07:56:55;;;;;;;;;;;19.00;99.90;;;;;;5040450;28;19974;-68
2022/05/28 07:59:21;;;;;;;;;;;19.20;99.90;;;;;;5046328;28;20024;-66
2022/05/28 08:01:47;;;;;;;;;;;19.10;99.90;;;;;;5041219;28;19921;-68
2022/05/28 08:04:13;;;;;;;;;;;19.20;99.90;;;;;;5045567;28;19955;-66
2022/05/28 08:06:40;;;;;;;;;;;19.50;99.90;;;;;;5050437;28;19912;-69
2022/05/28 08:09:07;;;;;;;;;;;19.70;99.90;;;;;;5053369;28;19909;-66
2022/05/28 08:11:32;;;;;;;;;;;19.60;99.90;;;;;;5054227;28;19960;-68
2022/05/28 08:13:58;;;;;;;;;;;19.40;99.90;;;;;;5042472;28;20413;-67
2022/05/28 08:16:24;;;;;;;;;;;19.40;99.90;;;;;;5063958;28;19904;-69
2022/05/28 08:18:49;;;;;;;;;;;19.40;99.90;;;;;;5053729;28;19917;-67
2022/05/28 08:23:59;;;;;;;;;;;19.20;99.90;;;;;;5054395;28;20407;-68
2022/05/28 08:26:25;;;;;;;;;;;19.20;99.90;;;;;;5050781;28;19917;-68
2022/05/28 08:28:51;;;;;;;;;;;19.10;99.90;;;;;;5052392;28;19999;-67
2022/05/28 08:31:17;;;;;;;;;;;19.10;99.90;;;;;;5055140;28;19912;-66
2022/05/28 08:33:43;;;;;;;;;;;19.10;99.90;;;;;;5049505;28;19927;-70
2022/05/28 08:36:09;;;;;;;;;;;18.70;99.90;;;;;;5055388;28;19908;-66
2022/05/28 08:41:42;;;;;;;;;;;18.50;99.90;;;;;;5046001;28;19962;-70
2022/05/28 08:44:07;;;;;;;;;;;18.60;99.90;;;;;;5058586;28;19917;-68
2022/05/28 08:46:34;;;;;;;;;;;18.80;99.90;;;;;;5050184;28;20029;-69
2022/05/28 08:49:00;;;;;;;;;;;18.90;99.90;;;;;;5047853;28;19917;-68
2022/05/28 08:51:26;;;;;;;;;;;18.90;99.90;;;;;;5056516;28;19917;-69
2022/05/28 08:53:56;;;;;;;;;;;19.00;99.90;;;;;;5048947;28;19928;-68
2022/05/28 08:56:23;;;;;;;;;;;19.20;99.90;;;;;;5057485;28;19931;-67
2022/05/28 08:58:56;;;;;;;;;;;19.40;99.90;;;;;;5057980;28;19925;-66
2022/05/28 09:01:22;;;;;;;;;;;19.40;99.90;;;;;;5063932;28;20003;-67
2022/05/28 09:03:54;;;;;;;;;;;19.10;99.90;;;;;;5061505;28;20054;-69
2022/05/28 09:06:23;;;;;;;;;;;18.90;99.90;;;;;;5058658;28;19917;-67
2022/05/28 09:08:50;;;;;;;;;;;18.90;99.90;;;;;;5059363;28;19920;-67
2022/05/28 09:11:25;;;;;;;;;;;18.90;99.90;;;;;;5058031;28;19916;-68
2022/05/28 09:13:53;;;;;;;;;;;18.80;99.90;;;;;;5052452;28;19959;-67
2022/05/28 09:16:28;;;;;;;;;;;18.70;99.90;;;;;;5039425;28;20375;-68
2022/05/28 09:18:55;;;;;;;;;;;18.60;99.90;;;;;;5051030;28;20651;-67
2022/05/28 09:21:21;;;;;;;;;;;18.60;99.90;;;;;;5051908;28;20264;-68
2022/05/28 09:23:50;;;;;;;;;;;18.60;99.90;;;;;;5046181;28;19920;-68
2022/05/28 09:26:19;;;;;;;;;;;18.50;99.90;;;;;;5050317;28;20231;-69
2022/05/28 09:28:49;;;;;;;;;;;18.40;99.90;;;;;;5061214;28;19919;-69
2022/05/28 09:31:27;;;;;;;;;;;18.40;99.90;;;;;;5065012;28;19928;-67
2022/05/28 09:34:00;;;;;;;;;;;18.40;99.90;;;;;;5050861;28;19936;-68
2022/05/28 09:36:45;;;;;;;;;;;18.40;99.90;;;;;;5058196;28;19958;-68
2022/05/28 09:39:29;;;;;;;;;;;18.40;99.90;;;;;;5058023;28;20378;-68
2022/05/28 09:42:11;;;;;;;;;;;18.40;99.90;;;;;;5056404;28;19917;-69
2022/05/28 09:44:46;;;;;;;;;;;18.40;99.90;;;;;;5062457;28;19915;-68
2022/05/28 09:47:13;;;;;;;;;;;18.40;99.90;;;;;;5048772;28;19913;-68
2022/05/28 09:49:56;;;;;;;;;;;18.40;99.90;;;;;;5051025;28;19912;-69
2022/05/28 09:52:21;;;;;;;;;;;18.30;99.90;;;;;;5050214;28;19920;-68
2022/05/28 09:54:47;;;;;;;;;;;18.50;99.90;;;;;;5057066;28;19919;-69
2022/05/28 09:57:22;;;;;;;;;;;18.60;99.90;;;;;;5050068;28;19912;-71
2022/05/28 09:59:55;;;;;;;;;;;18.60;99.90;;;;;;5059152;28;19920;-72
2022/05/28 10:02:29;;;;;;;;;;;18.60;99.90;;;;;;5044576;28;19943;-70
2022/05/28 10:05:03;;;;;;;;;;;18.70;99.90;;;;;;5053477;28;20320;-69
2022/05/28 10:07:28;;;;;;;;;;;18.80;99.90;;;;;;5041323;28;20007;-69
2022/05/28 10:09:54;;;;;;;;;;;18.70;99.90;;;;;;5062201;28;20003;-69
2022/05/28 10:12:25;;;;;;;;;;;18.70;99.90;;;;;;5051859;28;19912;-70
2022/05/28 10:15:16;;;;;;;;;;;18.90;99.90;;;;;;5051264;28;20350;-69
2022/05/28 10:17:43;;;;;;;;;;;19.00;99.90;;;;;;5048930;28;19931;-70
2022/05/28 10:20:18;;;;;;;;;;;19.20;99.90;;;;;;5043256;28;20020;-66
2022/05/28 10:22:44;;;;;;;;;;;19.10;99.90;;;;;;5048031;28;19919;-70
2022/05/28 10:25:28;;;;;;;;;;;19.00;99.90;;;;;;5049947;28;20007;-72
2022/05/28 10:27:54;;;;;;;;;;;18.70;99.90;;;;;;5054157;28;19925;-69
2022/05/28 10:30:34;;;;;;;;;;;18.70;99.90;;;;;;5047882;28;19928;-70
2022/05/28 10:33:20;;;;;;;;;;;18.70;99.90;;;;;;5046047;28;20456;-71
2022/05/28 10:35:46;;;;;;;;;;;18.80;99.90;;;;;;5051123;28;19913;-72
2022/05/28 10:38:12;;;;;;;;;;;18.60;99.90;;;;;;5057964;28;19912;-70
2022/05/28 10:40:45;;;;;;;;;;;18.40;99.90;;;;;;5043593;28;20034;-71
2022/05/28 10:43:23;;;;;;;;;;;18.50;99.90;;;;;;5038004;28;20298;-71
2022/05/28 10:45:52;;;;;;;;;;;18.40;99.90;;;;;;5049143;28;19913;-70
2022/05/28 10:48:27;;;;;;;;;;;18.30;99.90;;;;;;5050294;28;20315;-71
2022/05/28 10:51:11;;;;;;;;;;;18.30;99.90;;;;;;5030506;28;19920;-70
2022/05/28 10:53:39;;;;;;;;;;;18.10;99.90;;;;;;5048531;28;19958;-72
2022/05/28 10:56:08;;;;;;;;;;;18.20;99.90;;;;;;5051480;28;19919;-69
2022/05/28 10:58:44;;;;;;;;;;;18.30;99.90;;;;;;5048341;28;20558;-69
2022/05/28 11:01:13;;;;;;;;;;;18.40;99.90;;;;;;5049579;28;20251;-69
2022/05/28 11:03:38;;;;;;;;;;;18.50;99.90;;;;;;5044233;28;20385;-69
2022/05/28 11:06:04;;;;;;;;;;;18.40;99.90;;;;;;5046563;28;19913;-68
2022/05/28 11:08:52;;;;;;;;;;;18.40;99.90;;;;;;5047700;28;20208;-68
2022/05/28 11:11:37;;;;;;;;;;;18.50;99.90;;;;;;5050017;28;20058;-68
2022/05/28 11:14:02;;;;;;;;;;;18.50;99.90;;;;;;5023761;28;19924;-69
2022/05/28 11:16:52;;;;;;;;;;;18.50;99.90;;;;;;5048737;28;19909;-69
2022/05/28 11:19:18;;;;;;;;;;;18.60;99.90;;;;;;5051972;28;19913;-69
2022/05/28 11:22:02;;;;;;;;;;;18.40;99.90;;;;;;5044700;28;19920;-69
2022/05/28 11:24:45;;;;;;;;;;;18.40;99.90;;;;;;5047731;28;20282;-68
2022/05/28 11:27:16;;;;;;;;;;;18.20;99.90;;;;;;5049309;28;19912;-68
2022/05/28 11:29:48;;;;;;;;;;;18.10;99.90;;;;;;5049157;28;19936;-69
2022/05/28 11:32:35;;;;;;;;;;;18.00;99.90;;;;;;5050986;28;19912;-69
2022/05/28 11:35:13;;;;;;;;;;;18.00;99.90;;;;;;5055987;28;19913;-69
2022/05/28 11:37:44;;;;;;;;;;;18.00;99.90;;;;;;5048939;28;19924;-69
2022/05/28 11:40:12;;;;;;;;;;;17.90;99.90;;;;;;5050123;28;19995;-69
2022/05/28 11:42:43;;;;;;;;;;;17.40;99.90;;;;;;5049749;28;19913;-69
2022/05/28 11:45:14;;;;;;;;;;;16.90;99.90;;;;;;5049893;28;20374;-67
2022/05/28 11:47:50;;;;;;;;;;;16.90;99.90;;;;;;5050340;28;20527;-68
2022/05/28 11:53:26;;;;;;;;;;;17.00;99.90;;;;;;5045215;28;19920;-68
2022/05/28 11:55:58;;;;;;;;;;;17.00;99.90;;;;;;5050341;28;20314;-69
2022/05/28 11:58:46;;;;;;;;;;;17.10;99.90;;;;;;5052446;28;20477;-68
2022/05/28 12:01:15;;;;;;;;;;;17.20;99.90;;;;;;5040803;28;19913;-69
2022/05/28 12:03:42;;;;;;;;;;;17.20;99.90;;;;;;5042222;28;21643;-69
2022/05/28 12:06:13;;;;;;;;;;;17.30;99.90;;;;;;5052313;28;19967;-70
2022/05/28 12:08:47;;;;;;;;;;;17.40;99.90;;;;;;5030315;28;20099;-69
2022/05/28 12:11:18;;;;;;;;;;;17.40;99.90;;;;;;5050352;28;20397;-69
2022/05/28 12:13:50;;;;;;;;;;;17.50;99.90;;;;;;5047509;28;19913;-69
2022/05/28 12:16:22;;;;;;;;;;;17.60;99.90;;;;;;5048285;28;19919;-69
2022/05/28 12:19:01;;;;;;;;;;;17.70;99.90;;;;;;5050685;28;19974;-70
2022/05/28 12:21:28;;;;;;;;;;;17.80;99.90;;;;;;5046102;28;19920;-71
2022/05/28 12:24:09;;;;;;;;;;;17.80;99.90;;;;;;5029729;28;20409;-70
2022/05/28 12:29:09;;;;;;;;;;;17.90;99.90;;;;;;5053127;28;19919;-68
2022/05/28 12:31:35;;;;;;;;;;;18.10;99.90;;;;;;5049557;28;19917;-69
2022/05/28 12:34:00;;;;;;;;;;;18.10;99.90;;;;;;5047134;28;20008;-68
2022/05/28 12:36:32;;;;;;;;;;;18.00;99.90;;;;;;5046800;28;20375;-69
2022/05/28 12:39:05;;;;;;;;;;;18.30;99.90;;;;;;5047861;28;20345;-70
2022/05/28 12:41:36;;;;;;;;;;;18.30;99.90;;;;;;5047901;28;19913;-69
2022/05/28 12:44:19;;;;;;;;;;;18.40;99.90;;;;;;5046534;28;19917;-68
2022/05/28 12:46:55;;;;;;;;;;;18.20;99.90;;;;;;5045748;28;20012;-69
2022/05/28 12:49:20;;;;;;;;;;;18.50;99.90;;;;;;5051785;28;19913;-69
2022/05/28 12:51:58;;;;;;;;;;;18.40;99.90;;;;;;5046093;28;19924;-70
2022/05/28 12:54:29;;;;;;;;;;;18.20;99.90;;;;;;5044187;28;19971;-69
2022/05/28 12:57:06;;;;;;;;;;;18.40;99.90;;;;;;5046978;28;20322;-70
2022/05/28 12:59:34;;;;;;;;;;;18.30;99.90;;;;;;5025323;28;19916;-71
2022/05/28 13:01:59;;;;;;;;;;;18.40;99.90;;;;;;5048885;28;19917;-70
2022/05/28 13:04:30;;;;;;;;;;;18.40;99.90;;;;;;5053339;28;19920;-69
2022/05/28 13:06:58;;;;;;;;;;;18.50;99.90;;;;;;5042770;28;20263;-70
2022/05/28 13:09:27;;;;;;;;;;;18.40;99.90;;;;;;5069192;28;19920;-68
2022/05/28 13:12:12;;;;;;;;;;;18.50;99.90;;;;;;5061447;28;19917;-71
2022/05/28 13:14:50;;;;;;;;;;;18.50;99.90;;;;;;5058987;28;19912;-70
2022/05/28 13:17:21;;;;;;;;;;;18.60;99.90;;;;;;5062174;28;19940;-70
2022/05/28 13:19:53;;;;;;;;;;;18.80;99.90;;;;;;5053903;28;19959;-71
2022/05/28 13:22:18;;;;;;;;;;;19.10;99.90;;;;;;5054162;28;19913;-70
2022/05/28 13:24:44;;;;;;;;;;;19.10;99.90;;;;;;5063240;28;19912;-70
2022/05/28 13:27:21;;;;;;;;;;;19.30;99.90;;;;;;5055450;28;19917;-71
2022/05/28 13:29:53;;;;;;;;;;;19.50;99.90;;;;;;5061064;28;20263;-70
2022/05/28 13:32:38;;;;;;;;;;;19.30;99.90;;;;;;5062458;28;20366;-70
2022/05/28 13:35:07;;;;;;;;;;;19.60;99.90;;;;;;5060015;28;20008;-70
2022/05/28 13:37:33;;;;;;;;;;;19.80;99.90;;;;;;5059882;28;19913;-71
2022/05/28 13:39:59;;;;;;;;;;;19.70;99.90;;;;;;5051920;28;19912;-69
2022/05/28 13:42:25;;;;;;;;;;;19.70;99.90;;;;;;5050656;28;20062;-69
2022/05/28 13:44:52;;;;;;;;;;;19.80;99.90;;;;;;5062946;28;20007;-69
2022/05/28 13:47:24;;;;;;;;;;;19.30;99.90;;;;;;5057532;28;19966;-68
2022/05/28 13:49:53;;;;;;;;;;;19.20;99.90;;;;;;5050233;28;19935;-70
2022/05/28 13:52:19;;;;;;;;;;;19.10;99.90;;;;;;5054135;28;19979;-69
2022/05/28 13:54:54;;;;;;;;;;;19.20;99.90;;;;;;5060781;28;19912;-69
2022/05/28 13:57:21;;;;;;;;;;;19.30;99.90;;;;;;5060791;28;19966;-70
2022/05/28 13:59:49;;;;;;;;;;;19.40;99.90;;;;;;5049427;28;19970;-69
2022/05/28 14:02:20;;;;;;;;;;;19.40;99.90;;;;;;5047877;28;19913;-69
2022/05/28 14:04:47;;;;;;;;;;;19.70;99.90;;;;;;5058856;28;20410;-69
2022/05/28 14:07:27;;;;;;;;;;;19.60;99.90;;;;;;5062956;28;19991;-69
2022/05/28 14:09:52;;;;;;;;;;;19.80;99.90;;;;;;5053715;28;19928;-69
2022/05/28 14:12:44;;;;;;;;;;;19.70;99.90;;;;;;5049379;28;19913;-70
2022/05/28 14:15:16;;;;;;;;;;;19.80;99.90;;;;;;5045029;28;20370;-70
2022/05/28 14:17:41;;;;;;;;;;;19.70;99.90;;;;;;5049326;28;20392;-66
2022/05/28 14:20:18;;;;;;;;;;;19.70;99.90;;;;;;5044942;28;19913;-70
2022/05/28 14:22:46;;;;;;;;;;;19.50;99.90;;;;;;5051701;28;20306;-71
2022/05/28 14:25:19;;;;;;;;;;;19.30;99.90;;;;;;5048877;28;19912;-71
2022/05/28 14:27:45;;;;;;;;;;;19.40;99.90;;;;;;5047099;28;19919;-70
2022/05/28 14:30:11;;;;;;;;;;;19.40;99.90;;;;;;5046344;28;20000;-71
2022/05/28 14:32:40;;;;;;;;;;;19.50;99.90;;;;;;5048112;28;19913;-69
2022/05/28 14:35:11;;;;;;;;;;;19.50;99.90;;;;;;5049233;28;19913;-72
2022/05/28 14:37:37;;;;;;;;;;;19.30;99.90;;;;;;5051068;28;19916;-72
2022/05/28 14:40:02;;;;;;;;;;;19.10;99.90;;;;;;5049424;28;19912;-70